sensor_id;sensor_type;location;lat;lon;timestamp;pressure;altitude;pressure_sealevel;temperature;humidity
35758;BME280;21879;50.110;18.900;2023-12-20T00:05:10;98161.08;;;22.74;38.84
35758;BME280;21879;50.110;18.900;2023-12-20T00:15:37;98128.83;;;22.74;38.86
35758;BME280;21879;50.110;18.900;2023-12-20T00:26:05;98117.97;;;22.75;38.99
35758;BME280;21879;50.110;18.900;2023-12-20T00:36:32;98107.80;;;22.76;39.23
35758;BME280;21879;50.110;18.900;2023-12-20T00:47:00;98108.06;;;22.77;39.35
35758;BME280;21879;50.110;18.900;2023-12-20T00:57:28;98090.66;;;22.78;39.44
35758;BME280;21879;50.110;18.900;2023-12-20T01:07:55;98072.39;;;22.79;39.63
35758;BME280;21879;50.110;18.900;2023-12-20T01:18:22;98064.38;;;22.79;39.80
35758;BME280;21879;50.110;18.900;2023-12-20T01:28:50;98037.44;;;22.79;39.89
35758;BME280;21879;50.110;18.900;2023-12-20T01:39:18;98018.27;;;22.79;39.89
35758;BME280;21879;50.110;18.900;2023-12-20T01:49:54;98023.56;;;22.80;39.98
35758;BME280;21879;50.110;18.900;2023-12-20T02:00:24;98018.00;;;22.81;39.94
35758;BME280;21879;50.110;18.900;2023-12-20T02:10:53;98003.45;;;22.81;40.08
35758;BME280;21879;50.110;18.900;2023-12-20T02:21:24;98001.85;;;22.80;40.22
35758;BME280;21879;50.110;18.900;2023-12-20T02:31:52;98004.48;;;22.81;40.22
35758;BME280;21879;50.110;18.900;2023-12-20T02:42:19;98005.00;;;22.81;40.24
35758;BME280;21879;50.110;18.900;2023-12-20T02:52:47;97981.06;;;22.81;40.35
35758;BME280;21879;50.110;18.900;2023-12-20T03:03:14;97978.20;;;22.82;40.40
35758;BME280;21879;50.110;18.900;2023-12-20T03:13:42;97979.21;;;22.83;40.56
35758;BME280;21879;50.110;18.900;2023-12-20T03:24:09;97991.56;;;22.83;40.56
35758;BME280;21879;50.110;18.900;2023-12-20T03:34:36;97991.55;;;22.84;40.77
35758;BME280;21879;50.110;18.900;2023-12-20T03:45:05;97989.20;;;22.84;40.97
35758;BME280;21879;50.110;18.900;2023-12-20T03:55:33;97995.73;;;22.85;40.87
35758;BME280;21879;50.110;18.900;2023-12-20T04:06:00;98002.95;;;22.85;41.13
35758;BME280;21879;50.110;18.900;2023-12-20T04:16:28;98009.09;;;22.86;41.17
35758;BME280;21879;50.110;18.900;2023-12-20T04:26:55;98004.60;;;22.87;41.36
35758;BME280;21879;50.110;18.900;2023-12-20T04:37:23;98002.58;;;22.88;41.37
35758;BME280;21879;50.110;18.900;2023-12-20T04:47:50;97997.93;;;22.88;41.43
35758;BME280;21879;50.110;18.900;2023-12-20T04:58:18;97985.77;;;22.90;41.67
35758;BME280;21879;50.110;18.900;2023-12-20T05:08:45;97977.75;;;22.91;41.74
35758;BME280;21879;50.110;18.900;2023-12-20T05:19:12;97977.67;;;22.92;41.85
35758;BME280;21879;50.110;18.900;2023-12-20T05:29:40;97978.18;;;22.93;41.94
35758;BME280;21879;50.110;18.900;2023-12-20T05:40:09;97983.96;;;22.93;42.02
35758;BME280;21879;50.110;18.900;2023-12-20T05:50:36;97991.89;;;22.94;42.05
35758;BME280;21879;50.110;18.900;2023-12-20T06:01:04;97992.33;;;22.95;42.13
35758;BME280;21879;50.110;18.900;2023-12-20T06:11:33;97987.13;;;22.96;42.23
35758;BME280;21879;50.110;18.900;2023-12-20T06:22:01;97981.96;;;22.96;42.35
35758;BME280;21879;50.110;18.900;2023-12-20T06:32:28;97986.13;;;22.98;42.40
35758;BME280;21879;50.110;18.900;2023-12-20T06:42:56;98000.95;;;22.99;42.46
35758;BME280;21879;50.110;18.900;2023-12-20T06:53:37;98012.59;;;23.00;42.43
35758;BME280;21879;50.110;18.900;2023-12-20T07:04:05;98008.65;;;23.00;42.53
35758;BME280;21879;50.110;18.900;2023-12-20T07:14:32;98016.04;;;23.01;42.56
35758;BME280;21879;50.110;18.900;2023-12-20T07:25:00;98029.33;;;23.01;42.58
35758;BME280;21879;50.110;18.900;2023-12-20T07:35:27;98027.91;;;23.01;42.57
35758;BME280;21879;50.110;18.900;2023-12-20T07:45:55;98029.29;;;23.02;42.72
35758;BME280;21879;50.110;18.900;2023-12-20T07:56:23;98035.12;;;23.02;42.84
35758;BME280;21879;50.110;18.900;2023-12-20T08:06:50;98038.13;;;23.02;42.77
35758;BME280;21879;50.110;18.900;2023-12-20T08:17:18;98029.37;;;23.03;42.77
35758;BME280;21879;50.110;18.900;2023-12-20T08:27:45;98029.04;;;23.03;42.85
35758;BME280;21879;50.110;18.900;2023-12-20T08:38:13;98024.24;;;23.03;42.89
35758;BME280;21879;50.110;18.900;2023-12-20T08:48:41;98026.02;;;23.03;43.08
35758;BME280;21879;50.110;18.900;2023-12-20T08:59:08;98027.58;;;23.03;43.01
35758;BME280;21879;50.110;18.900;2023-12-20T09:09:36;98015.89;;;23.03;43.00
35758;BME280;21879;50.110;18.900;2023-12-20T09:20:04;98019.83;;;23.03;43.04
35758;BME280;21879;50.110;18.900;2023-12-20T09:30:34;98022.55;;;23.02;43.16
35758;BME280;21879;50.110;18.900;2023-12-20T09:41:06;98028.69;;;23.03;43.41
35758;BME280;21879;50.110;18.900;2023-12-20T09:51:33;98012.11;;;23.04;43.51
35758;BME280;21879;50.110;18.900;2023-12-20T10:02:03;98007.16;;;23.04;43.74
35758;BME280;21879;50.110;18.900;2023-12-20T10:12:35;98003.34;;;23.05;44.20
35758;BME280;21879;50.110;18.900;2023-12-20T10:23:03;98004.52;;;23.09;44.74
35758;BME280;21879;50.110;18.900;2023-12-20T10:33:31;98004.58;;;23.10;45.48
35758;BME280;21879;50.110;18.900;2023-12-20T10:44:01;98005.23;;;23.13;45.51
35758;BME280;21879;50.110;18.900;2023-12-20T10:54:29;98011.27;;;23.13;45.61
35758;BME280;21879;50.110;18.900;2023-12-20T11:05:02;98012.30;;;23.11;46.20
35758;BME280;21879;50.110;18.900;2023-12-20T11:15:34;98004.09;;;23.07;46.24
35758;BME280;21879;50.110;18.900;2023-12-20T11:26:03;97999.44;;;23.03;46.50
35758;BME280;21879;50.110;18.900;2023-12-20T11:36:33;97996.61;;;22.98;47.00
35758;BME280;21879;50.110;18.900;2023-12-20T11:47:02;97982.14;;;22.94;47.18
35758;BME280;21879;50.110;18.900;2023-12-20T11:57:30;97982.13;;;22.92;47.31
35758;BME280;21879;50.110;18.900;2023-12-20T12:07:58;97980.15;;;22.89;47.27
35758;BME280;21879;50.110;18.900;2023-12-20T12:18:25;97973.81;;;22.86;47.43
35758;BME280;21879;50.110;18.900;2023-12-20T12:28:53;97962.41;;;22.85;47.66
35758;BME280;21879;50.110;18.900;2023-12-20T12:39:21;97956.11;;;22.83;47.60
35758;BME280;21879;50.110;18.900;2023-12-20T12:49:53;97955.40;;;22.81;47.47
35758;BME280;21879;50.110;18.900;2023-12-20T13:00:21;97956.88;;;22.80;47.93
35758;BME280;21879;50.110;18.900;2023-12-20T13:10:49;97972.23;;;22.81;48.14
35758;BME280;21879;50.110;18.900;2023-12-20T13:21:17;97951.96;;;22.82;48.29
35758;BME280;21879;50.110;18.900;2023-12-20T13:31:45;97952.39;;;22.83;48.42
35758;BME280;21879;50.110;18.900;2023-12-20T13:42:13;97951.27;;;22.85;48.32
35758;BME280;21879;50.110;18.900;2023-12-20T13:52:41;97965.94;;;22.85;48.23
35758;BME280;21879;50.110;18.900;2023-12-20T14:03:10;97969.91;;;22.84;48.19
35758;BME280;21879;50.110;18.900;2023-12-20T14:13:38;97974.23;;;22.83;48.10
35758;BME280;21879;50.110;18.900;2023-12-20T14:24:08;97969.69;;;22.82;48.02
35758;BME280;21879;50.110;18.900;2023-12-20T14:34:35;97950.76;;;22.82;47.88
35758;BME280;21879;50.110;18.900;2023-12-20T14:45:06;97940.50;;;22.81;47.87
35758;BME280;21879;50.110;18.900;2023-12-20T14:55:34;97933.70;;;22.80;47.78
35758;BME280;21879;50.110;18.900;2023-12-20T15:06:02;97936.27;;;22.79;47.67
35758;BME280;21879;50.110;18.900;2023-12-20T15:16:30;97952.48;;;22.77;47.61
35758;BME280;21879;50.110;18.900;2023-12-20T15:26:57;97950.75;;;22.77;47.67
35758;BME280;21879;50.110;18.900;2023-12-20T15:37:25;97938.32;;;22.77;47.56
35758;BME280;21879;50.110;18.900;2023-12-20T15:47:54;97943.58;;;22.78;47.40
35758;BME280;21879;50.110;18.900;2023-12-20T15:58:21;97938.84;;;22.85;47.41
35758;BME280;21879;50.110;18.900;2023-12-20T16:08:48;97932.64;;;22.92;47.26
35758;BME280;21879;50.110;18.900;2023-12-20T16:19:16;97937.23;;;22.98;47.06
35758;BME280;21879;50.110;18.900;2023-12-20T16:29:43;97939.59;;;23.02;46.85
35758;BME280;21879;50.110;18.900;2023-12-20T16:40:12;97935.52;;;23.04;46.73
35758;BME280;21879;50.110;18.900;2023-12-20T16:50:39;97941.25;;;23.06;46.59
35758;BME280;21879;50.110;18.900;2023-12-20T17:01:07;97949.15;;;23.02;46.69
35758;BME280;21879;50.110;18.900;2023-12-20T17:11:37;97945.91;;;22.95;46.75
35758;BME280;21879;50.110;18.900;2023-12-20T17:22:06;97946.73;;;22.91;46.73
35758;BME280;21879;50.110;18.900;2023-12-20T17:32:34;97938.92;;;22.93;46.78
35758;BME280;21879;50.110;18.900;2023-12-20T17:43:03;97929.91;;;22.98;46.64
35758;BME280;21879;50.110;18.900;2023-12-20T17:53:31;97931.06;;;23.02;46.68
35758;BME280;21879;50.110;18.900;2023-12-20T18:03:58;97922.16;;;23.05;46.51
35758;BME280;21879;50.110;18.900;2023-12-20T18:14:26;97931.94;;;23.07;47.41
35758;BME280;21879;50.110;18.900;2023-12-20T18:24:53;97918.55;;;23.11;47.70
35758;BME280;21879;50.110;18.900;2023-12-20T18:35:22;97914.52;;;23.10;47.72
35758;BME280;21879;50.110;18.900;2023-12-20T18:45:50;97936.06;;;23.04;47.70
35758;BME280;21879;50.110;18.900;2023-12-20T18:56:18;97939.77;;;22.99;47.78
35758;BME280;21879;50.110;18.900;2023-12-20T19:06:46;97921.13;;;22.94;47.72
35758;BME280;21879;50.110;18.900;2023-12-20T19:17:14;97903.13;;;22.90;47.91
35758;BME280;21879;50.110;18.900;2023-12-20T19:27:42;97914.55;;;22.87;47.96
35758;BME280;21879;50.110;18.900;2023-12-20T19:38:10;97915.07;;;22.85;47.92
35758;BME280;21879;50.110;18.900;2023-12-20T19:48:38;97919.69;;;22.82;47.81
35758;BME280;21879;50.110;18.900;2023-12-20T19:59:06;97917.39;;;22.80;47.85
35758;BME280;21879;50.110;18.900;2023-12-20T20:09:34;97911.33;;;22.78;47.85
35758;BME280;21879;50.110;18.900;2023-12-20T20:20:02;97918.89;;;22.76;47.73
35758;BME280;21879;50.110;18.900;2023-12-20T20:30:30;97913.48;;;22.75;47.87
35758;BME280;21879;50.110;18.900;2023-12-20T20:40:58;97899.11;;;22.78;49.56
35758;BME280;21879;50.110;18.900;2023-12-20T20:51:26;97908.69;;;22.82;50.08
35758;BME280;21879;50.110;18.900;2023-12-20T21:01:54;97914.23;;;22.87;49.99
35758;BME280;21879;50.110;18.900;2023-12-20T21:12:21;97899.80;;;22.90;50.77
35758;BME280;21879;50.110;18.900;2023-12-20T21:22:51;97891.92;;;22.94;51.86
35758;BME280;21879;50.110;18.900;2023-12-20T21:33:19;97894.16;;;22.97;52.08
35758;BME280;21879;50.110;18.900;2023-12-20T21:43:47;97886.49;;;23.00;52.55
35758;BME280;21879;50.110;18.900;2023-12-20T21:54:15;97874.27;;;23.03;52.97
35758;BME280;21879;50.110;18.900;2023-12-20T22:04:43;97876.07;;;23.02;53.19
35758;BME280;21879;50.110;18.900;2023-12-20T22:15:12;97873.03;;;23.00;53.72
35758;BME280;21879;50.110;18.900;2023-12-20T22:25:40;97871.70;;;22.96;54.20
35758;BME280;21879;50.110;18.900;2023-12-20T22:36:09;97864.52;;;22.93;54.58
35758;BME280;21879;50.110;18.900;2023-12-20T22:46:37;97864.52;;;22.90;54.84
35758;BME280;21879;50.110;18.900;2023-12-20T22:57:07;97858.18;;;22.87;55.13
35758;BME280;21879;50.110;18.900;2023-12-20T23:07:35;97842.75;;;22.85;55.53
35758;BME280;21879;50.110;18.900;2023-12-20T23:18:04;97842.84;;;22.84;55.71
35758;BME280;21879;50.110;18.900;2023-12-20T23:28:31;97828.09;;;22.82;55.90
35758;BME280;21879;50.110;18.900;2023-12-20T23:38:59;97803.77;;;22.80;56.05
35758;BME280;21879;50.110;18.900;2023-12-20T23:49:27;97791.70;;;22.80;55.87
35758;BME280;21879;50.110;18.900;2023-12-20T23:59:55;97781.66;;;22.82;56.01
